Time;durP1;ratioP1;P1;durP2;ratioP2;P2;SDS_P1;SDS_P2;PMS_P1;PMS_P2;Temp;Humidity;BMP_temperature;BMP_pressure;BME280_temperature;BME280_humidity;BME280_pressure;Samples;Min_cycle;Max_cycle;Signal;HPM_P1;HPM_P2
2022/12/18 00:01:40;;;;;;;4.23;3.83;;;;;;;-2.37;90.80;96456.00;4338911;32;20201;-52
2022/12/18 00:04:14;;;;;;;3.30;3.10;;;;;;;-2.30;90.89;96451.69;4350935;32;20222;-53
2022/12/18 00:06:39;;;;;;;4.12;3.42;;;;;;;-2.21;91.08;96447.97;4333960;32;20193;-51
2022/12/18 00:09:05;;;;;;;3.53;3.33;;;;;;;-1.99;90.42;96440.16;4331074;32;20224;-49
2022/12/18 00:11:31;;;;;;;4.23;3.90;;;;;;;-1.90;90.23;96434.66;4350526;32;20203;-50
2022/12/18 00:13:59;;;;;;;2.53;2.17;;;;;;;-1.93;89.64;96434.22;4328470;33;20221;-50
2022/12/18 00:16:26;;;;;;;6.37;4.28;;;;;;;-2.04;90.14;96430.31;4340440;32;20193;-52
2022/12/18 00:18:58;;;;;;;3.10;2.92;;;;;;;-1.92;89.65;96430.66;4315054;32;20228;-51
2022/12/18 00:21:23;;;;;;;5.07;3.42;;;;;;;-2.02;89.79;96433.53;4335728;32;20212;-53
2022/12/18 00:23:50;;;;;;;4.10;3.80;;;;;;;-2.16;89.97;96442.22;4330599;32;20198;-50
2022/12/18 00:26:21;;;;;;;2.87;2.78;;;;;;;-2.40;90.27;96448.59;4337040;32;20289;-48
2022/12/18 00:28:47;;;;;;;3.42;3.12;;;;;;;-2.14;90.31;96430.66;4344445;32;20222;-52
2022/12/18 00:31:16;;;;;;;1.80;1.70;;;;;;;-1.99;90.01;96429.78;4347616;32;20194;-50
2022/12/18 00:33:42;;;;;;;3.37;3.12;;;;;;;-2.03;89.27;96426.75;4332449;32;20241;-51
2022/12/18 00:36:12;;;;;;;3.30;3.12;;;;;;;-2.30;89.85;96443.09;4345885;32;20193;-51
2022/12/18 00:38:38;;;;;;;5.10;4.70;;;;;;;-2.18;90.05;96458.00;4344834;32;20207;-53
2022/12/18 00:41:04;;;;;;;4.80;4.37;;;;;;;-2.10;90.12;96470.88;4348828;32;20185;-48
2022/12/18 00:43:30;;;;;;;2.97;2.70;;;;;;;-2.17;90.03;96475.19;4346806;32;20189;-62
2022/12/18 00:45:55;;;;;;;4.83;4.47;;;;;;;-2.13;90.34;96473.03;4338636;32;20263;-50
2022/12/18 00:48:21;;;;;;;4.07;3.53;;;;;;;-2.20;90.46;96465.16;4332940;32;20207;-52
2022/12/18 00:50:50;;;;;;;6.37;3.87;;;;;;;-2.30;90.88;96469.88;4325924;32;20219;-53
2022/12/18 00:53:16;;;;;;;3.22;3.03;;;;;;;-2.25;90.81;96464.91;4344742;32;20272;-54
2022/12/18 00:55:42;;;;;;;4.20;3.90;;;;;;;-2.13;90.47;96460.84;4341651;32;20185;-53
2022/12/18 00:58:09;;;;;;;3.20;2.97;;;;;;;-1.96;89.69;96460.59;4324116;32;20198;-54
2022/12/18 01:00:34;;;;;;;4.90;4.35;;;;;;;-2.02;89.64;96466.53;4337025;32;20229;-53
2022/12/18 01:03:00;;;;;;;3.03;2.83;;;;;;;-2.39;90.61;96470.97;4347142;32;20203;-53
2022/12/18 01:05:25;;;;;;;2.20;2.10;;;;;;;-2.01;89.46;96466.34;4344783;32;20194;-50
2022/12/18 01:07:51;;;;;;;4.70;4.40;;;;;;;-1.77;88.43;96467.75;4347841;32;20189;-51
2022/12/18 01:10:16;;;;;;;2.50;2.40;;;;;;;-1.73;87.69;96467.22;4326988;32;20269;-52
2022/12/18 01:12:42;;;;;;;4.40;2.90;;;;;;;-1.91;88.55;96481.66;4343902;32;20243;-54
2022/12/18 01:15:09;;;;;;;2.43;2.33;;;;;;;-1.86;88.42;96476.66;4346905;32;20204;-54
2022/12/18 01:17:35;;;;;;;3.53;3.33;;;;;;;-2.19;89.11;96489.38;4331138;32;20194;-50
2022/12/18 01:20:00;;;;;;;3.43;2.80;;;;;;;-2.03;88.79;96485.72;4330314;32;20226;-58
2022/12/18 01:22:25;;;;;;;5.27;2.77;;;;;;;-2.04;89.08;96490.09;4332391;32;20237;-52
2022/12/18 01:24:51;;;;;;;4.30;2.47;;;;;;;-2.01;88.64;96501.94;4328733;33;20189;-52
2022/12/18 01:27:16;;;;;;;2.30;2.20;;;;;;;-1.73;87.64;96502.81;4337791;32;20194;-53
2022/12/18 01:29:42;;;;;;;2.90;2.70;;;;;;;-1.73;87.31;96513.22;4345478;32;20213;-52
2022/12/18 01:32:07;;;;;;;3.70;2.80;;;;;;;-1.66;86.67;96514.06;4342918;32;20205;-52
2022/12/18 01:34:34;;;;;;;4.60;2.20;;;;;;;-1.72;87.11;96520.03;4323127;32;20208;-55
2022/12/18 01:37:02;;;;;;;4.40;4.10;;;;;;;-1.76;87.24;96537.78;4338442;32;20208;-55
2022/12/18 01:39:28;;;;;;;3.20;3.10;;;;;;;-1.87;87.51;96524.50;4323796;32;20198;-54
2022/12/18 01:42:02;;;;;;;2.77;2.57;;;;;;;-1.92;87.93;96526.84;4315976;32;20280;-55
2022/12/18 01:44:55;;;;;;;3.90;3.67;;;;;;;-2.08;88.54;96526.06;4342440;32;20212;-54
2022/12/18 01:47:31;;;;;;;1.60;1.60;;;;;;;-2.13;88.77;96528.44;4347371;32;20292;-52
2022/12/18 01:49:59;;;;;;;4.22;3.67;;;;;;;-2.10;88.93;96532.44;4355977;32;20184;-53
2022/12/18 01:52:28;;;;;;;2.53;2.42;;;;;;;-2.29;89.58;96533.84;4331470;32;20178;-52
2022/12/18 01:54:55;;;;;;;3.50;3.40;;;;;;;-2.21;89.59;96530.31;4350300;32;20188;-55
2022/12/18 01:57:24;;;;;;;5.53;3.50;;;;;;;-1.86;88.35;96529.47;4338119;32;20319;-54
2022/12/18 01:59:52;;;;;;;3.15;2.95;;;;;;;-2.07;87.83;96532.87;4333381;32;20182;-50
2022/12/18 02:02:18;;;;;;;7.35;3.85;;;;;;;-2.21;88.81;96531.13;4344458;32;20201;-52
2022/12/18 02:04:45;;;;;;;6.25;3.67;;;;;;;-2.24;89.12;96536.69;4328298;32;20223;-52
2022/12/18 02:07:28;;;;;;;5.05;3.08;;;;;;;-1.93;88.66;96530.41;4326757;32;20200;-53
2022/12/18 02:10:06;;;;;;;4.12;3.90;;;;;;;-1.94;88.60;96531.41;4345339;32;20180;-54
2022/12/18 02:12:44;;;;;;;3.35;3.15;;;;;;;-2.03;88.61;96522.91;4334803;32;20190;-54
2022/12/18 02:15:25;;;;;;;6.30;3.83;;;;;;;-2.02;88.67;96521.91;4338769;32;20181;-53
2022/12/18 02:17:58;;;;;;;2.15;2.15;;;;;;;-2.01;88.58;96515.75;4336299;32;20314;-53
2022/12/18 02:20:39;;;;;;;4.47;3.15;;;;;;;-2.11;89.16;96505.66;4354602;32;20189;-50
2022/12/18 02:23:41;;;;;;;2.15;2.05;;;;;;;-2.31;89.31;96509.84;4337509;32;20185;-52
2022/12/18 02:26:12;;;;;;;3.72;3.53;;;;;;;-2.53;90.48;96513.38;4338244;32;20196;-52
2022/12/18 02:28:55;;;;;;;2.55;2.33;;;;;;;-2.42;90.44;96513.69;4338567;32;20181;-54
2022/12/18 02:31:25;;;;;;;4.68;4.37;;;;;;;-2.25;90.15;96523.88;4331316;32;21943;-53
2022/12/18 02:33:54;;;;;;;9.20;4.07;;;;;;;-2.11;89.58;96515.25;4342752;32;20312;-54
2022/12/18 02:36:21;;;;;;;6.47;2.90;;;;;;;-2.10;89.06;96516.84;4315358;32;20180;-54
2022/12/18 02:38:48;;;;;;;5.90;4.28;;;;;;;-2.18;89.14;96522.16;4318295;32;20204;-51
2022/12/18 02:41:15;;;;;;;4.07;3.85;;;;;;;-2.32;88.52;96521.22;4340163;32;20181;-54
2022/12/18 02:43:47;;;;;;;5.43;4.35;;;;;;;-2.52;89.77;96515.00;4341583;32;20220;-54
2022/12/18 02:46:38;;;;;;;4.07;3.30;;;;;;;-2.36;89.53;96506.97;4340472;32;20181;-54
2022/12/18 02:49:33;;;;;;;3.85;3.67;;;;;;;-2.46;89.75;96509.84;4329564;32;20182;-53
2022/12/18 02:52:28;;;;;;;5.20;4.60;;;;;;;-2.58;90.43;96503.53;4302621;32;20199;-52
2022/12/18 02:55:12;;;;;;;3.97;2.90;;;;;;;-2.30;89.88;96501.06;4336374;32;20182;-54
2022/12/18 02:57:53;;;;;;;6.03;2.92;;;;;;;-2.17;89.20;96519.38;4343163;32;20203;-54
2022/12/18 03:00:23;;;;;;;4.57;3.60;;;;;;;-2.22;89.32;96520.91;4327547;33;20177;-54
2022/12/18 03:02:59;;;;;;;6.07;5.65;;;;;;;-1.93;88.20;96518.22;4336867;32;20267;-53
2022/12/18 03:05:35;;;;;;;4.43;4.12;;;;;;;-2.30;89.21;96515.84;4336078;32;20225;-52
2022/12/18 03:08:06;;;;;;;3.92;3.60;;;;;;;-2.21;88.89;96518.13;4333839;33;20195;-54
2022/12/18 03:10:37;;;;;;;2.60;2.40;;;;;;;-2.24;89.41;96515.09;4341402;32;20178;-53
2022/12/18 03:13:13;;;;;;;3.83;3.47;;;;;;;-2.36;89.39;96513.97;4343564;32;20186;-52
2022/12/18 03:15:43;;;;;;;4.35;3.87;;;;;;;-2.26;89.27;96512.66;4327578;32;20223;-53
2022/12/18 03:18:17;;;;;;;2.28;2.17;;;;;;;-2.28;89.49;96504.25;4330770;32;20189;-52
2022/12/18 03:20:44;;;;;;;4.20;3.85;;;;;;;-2.19;89.47;96508.34;4346653;32;20190;-52
2022/12/18 03:23:14;;;;;;;3.05;2.40;;;;;;;-2.04;88.57;96495.31;4342335;32;20202;-51
2022/12/18 03:25:43;;;;;;;6.55;4.68;;;;;;;-2.15;88.88;96499.22;4324272;33;20186;-52
2022/12/18 03:28:14;;;;;;;3.53;3.30;;;;;;;-2.11;88.52;96505.66;4341583;32;20200;-52
2022/12/18 03:30:41;;;;;;;2.42;2.25;;;;;;;-2.43;89.84;96511.28;4325876;33;20261;-52
2022/12/18 03:33:19;;;;;;;3.45;3.15;;;;;;;-2.21;89.52;96499.94;4324077;33;20216;-53
2022/12/18 03:35:45;;;;;;;3.95;2.87;;;;;;;-2.15;88.41;96509.59;4329021;33;20241;-53
2022/12/18 03:38:11;;;;;;;3.13;2.93;;;;;;;-1.93;88.38;96505.22;4341935;32;20189;-52
2022/12/18 03:40:56;;;;;;;4.10;3.78;;;;;;;-1.80;87.67;96496.72;4327895;32;20193;-51
2022/12/18 03:43:42;;;;;;;4.47;4.10;;;;;;;-1.77;87.42;96511.97;4325743;32;20194;-51
2022/12/18 03:46:36;;;;;;;5.25;4.78;;;;;;;-1.62;86.39;96507.50;4328479;32;20193;-53
2022/12/18 03:49:17;;;;;;;3.30;3.20;;;;;;;-1.63;86.26;96516.28;4337982;32;20218;-54
2022/12/18 03:52:01;;;;;;;2.65;2.35;;;;;;;-2.07;87.00;96516.47;4315202;32;20208;-50
2022/12/18 03:54:29;;;;;;;3.40;3.30;;;;;;;-2.02;87.08;96521.12;4325498;32;20193;-52
2022/12/18 03:57:01;;;;;;;2.62;2.42;;;;;;;-1.99;87.79;96507.75;4311302;32;20211;-53
2022/12/18 03:59:28;;;;;;;2.92;2.83;;;;;;;-2.28;88.40;96514.66;4312711;33;20197;-52
2022/12/18 04:01:57;;;;;;;3.65;3.45;;;;;;;-2.04;88.30;96512.69;4310980;33;20204;-50
2022/12/18 04:04:24;;;;;;;5.50;5.05;;;;;;;-1.73;87.05;96505.41;4320254;32;20171;-53
2022/12/18 04:06:50;;;;;;;7.55;5.03;;;;;;;-2.25;87.60;96519.47;4314052;32;20182;-53
2022/12/18 04:09:16;;;;;;;3.83;3.60;;;;;;;-1.89;87.24;96518.66;4314470;32;20240;-54
2022/12/18 04:11:44;;;;;;;4.60;3.93;;;;;;;-2.15;87.96;96520.00;4313600;32;20186;-51
2022/12/18 04:14:11;;;;;;;2.90;2.80;;;;;;;-2.09;88.02;96524.47;4325238;33;20182;-55
2022/12/18 04:16:37;;;;;;;4.53;4.22;;;;;;;-1.94;87.25;96518.41;4312782;33;20209;-51
2022/12/18 04:19:04;;;;;;;3.97;3.77;;;;;;;-2.12;87.85;96514.44;4340755;32;20183;-51
2022/12/18 04:21:30;;;;;;;6.07;5.05;;;;;;;-1.92;87.18;96519.03;4332197;32;20243;-51
2022/12/18 04:23:56;;;;;;;4.53;4.28;;;;;;;-1.98;87.59;96527.56;4319185;32;20225;-51
2022/12/18 04:26:22;;;;;;;4.07;3.70;;;;;;;-2.00;87.24;96525.16;4315346;32;20186;-49
2022/12/18 04:28:47;;;;;;;5.07;4.50;;;;;;;-1.89;86.92;96516.88;4314355;32;20202;-53
2022/12/18 04:31:12;;;;;;;2.20;2.20;;;;;;;-2.13;87.17;96527.63;4312205;33;20209;-54
2022/12/18 04:33:38;;;;;;;4.47;3.03;;;;;;;-2.26;88.19;96527.44;4325807;32;20208;-51
2022/12/18 04:36:04;;;;;;;2.27;2.17;;;;;;;-2.22;87.95;96529.50;4315141;33;20218;-51
2022/12/18 04:38:29;;;;;;;3.97;3.70;;;;;;;-2.13;87.90;96536.22;4315059;33;20186;-52
2022/12/18 04:40:54;;;;;;;4.23;3.97;;;;;;;-2.11;87.61;96523.03;4341915;32;20174;-55
2022/12/18 04:43:20;;;;;;;2.53;2.33;;;;;;;-2.11;87.66;96526.44;4316365;32;20257;-52
2022/12/18 04:45:46;;;;;;;3.40;3.23;;;;;;;-2.11;87.77;96533.44;4319958;33;20190;-51
2022/12/18 04:48:12;;;;;;;4.50;3.60;;;;;;;-2.37;88.80;96523.56;4320291;32;20200;-49
2022/12/18 04:50:37;;;;;;;3.73;3.47;;;;;;;-2.34;88.87;96530.97;4352795;32;20192;-53
2022/12/18 04:53:02;;;;;;;3.77;3.57;;;;;;;-2.45;88.88;96537.44;4337492;32;20188;-51
2022/12/18 04:55:28;;;;;;;5.10;4.60;;;;;;;-2.29;89.06;96544.25;4347990;32;20181;-53
2022/12/18 04:57:53;;;;;;;2.40;2.30;;;;;;;-2.11;88.59;96544.62;4331421;32;20185;-52
2022/12/18 05:00:19;;;;;;;2.03;2.03;;;;;;;-2.17;88.21;96542.75;4326176;32;20338;-53
2022/12/18 05:02:45;;;;;;;2.95;2.22;;;;;;;-2.44;89.01;96559.03;4330705;32;20170;-50
2022/12/18 05:05:10;;;;;;;1.93;1.90;;;;;;;-2.28;88.52;96545.81;4345511;32;20173;-54
2022/12/18 05:07:35;;;;;;;3.03;2.70;;;;;;;-2.23;87.50;96543.50;4335755;32;20320;-52
2022/12/18 05:10:03;;;;;;;2.73;2.53;;;;;;;-2.18;87.81;96551.56;4350767;32;20190;-57
2022/12/18 05:12:28;;;;;;;2.25;2.20;;;;;;;-2.12;87.27;96550.03;4342776;32;20174;-53
2022/12/18 05:14:53;;;;;;;3.17;2.97;;;;;;;-2.15;87.52;96553.78;4344986;32;20189;-53
2022/12/18 05:17:18;;;;;;;3.13;2.93;;;;;;;-2.28;87.24;96553.63;4344268;32;20249;-52
2022/12/18 05:19:44;;;;;;;1.90;1.80;;;;;;;-2.30;87.72;96557.41;4320114;32;20184;-51
2022/12/18 05:22:11;;;;;;;5.30;3.87;;;;;;;-2.30;88.06;96562.59;4323818;32;20201;-51
2022/12/18 05:24:36;;;;;;;2.58;2.37;;;;;;;-2.36;87.54;96571.94;4328805;32;20225;-51
2022/12/18 05:27:01;;;;;;;4.13;3.30;;;;;;;-2.30;87.55;96563.41;4339694;32;20227;-51
2022/12/18 05:29:27;;;;;;;2.27;2.17;;;;;;;-2.22;87.68;96559.88;4343324;32;20196;-51
2022/12/18 05:31:52;;;;;;;2.40;2.30;;;;;;;-2.47;88.21;96555.00;4320898;32;20178;-53
2022/12/18 05:34:19;;;;;;;3.53;3.07;;;;;;;-2.27;87.96;96560.44;4349304;32;20178;-53
2022/12/18 05:36:46;;;;;;;3.97;2.90;;;;;;;-2.32;87.99;96561.97;4335158;32;20185;-51
2022/12/18 05:39:11;;;;;;;5.35;4.87;;;;;;;-2.36;87.56;96569.31;4358025;32;20192;-52
2022/12/18 05:41:36;;;;;;;2.33;2.23;;;;;;;-2.36;87.79;96563.31;4344850;32;20266;-52
2022/12/18 05:44:02;;;;;;;2.37;2.27;;;;;;;-2.33;87.60;96563.78;4328569;32;20192;-51
2022/12/18 05:46:27;;;;;;;4.30;3.40;;;;;;;-2.35;87.70;96575.34;4345253;32;20177;-52
2022/12/18 05:48:53;;;;;;;3.90;3.63;;;;;;;-2.12;87.41;96582.00;4344560;32;20216;-50
2022/12/18 05:51:21;;;;;;;2.03;1.83;;;;;;;-2.22;86.95;96565.09;4331324;32;20177;-50
2022/12/18 05:53:48;;;;;;;2.50;2.40;;;;;;;-2.26;87.05;96577.63;4347184;32;20273;-52
2022/12/18 05:56:19;;;;;;;1.55;1.45;;;;;;;-2.19;87.10;96575.91;4345566;32;20205;-53
2022/12/18 05:58:45;;;;;;;2.20;2.00;;;;;;;-2.14;86.99;96572.78;4335696;32;20181;-49
2022/12/18 06:01:16;;;;;;;3.37;3.07;;;;;;;-2.01;86.15;96582.50;4343338;32;20260;-51
2022/12/18 06:03:42;;;;;;;2.15;1.98;;;;;;;-1.90;85.94;96588.06;4343509;32;20273;-55
2022/12/18 06:06:23;;;;;;;2.93;2.73;;;;;;;-1.84;85.22;96583.91;4341383;32;20205;-51
2022/12/18 06:08:49;;;;;;;2.00;1.92;;;;;;;-1.92;85.87;96590.03;4350670;32;20176;-53
2022/12/18 06:11:20;;;;;;;3.08;2.90;;;;;;;-1.90;85.58;96587.25;4331279;32;20187;-53
2022/12/18 06:13:46;;;;;;;3.20;3.00;;;;;;;-2.07;85.64;96584.03;4339060;32;20195;-52
2022/12/18 06:16:12;;;;;;;2.27;2.07;;;;;;;-2.30;86.34;96588.59;4339394;32;20189;-53
2022/12/18 06:18:37;;;;;;;4.10;3.90;;;;;;;-2.02;86.18;96591.28;4341977;32;20235;-50
2022/12/18 06:21:04;;;;;;;3.30;1.87;;;;;;;-1.75;84.82;96588.81;4338075;32;20196;-53
2022/12/18 06:23:29;;;;;;;2.60;2.50;;;;;;;-2.26;86.07;96589.81;4329054;32;20177;-52
2022/12/18 06:25:55;;;;;;;3.03;1.60;;;;;;;-2.38;86.63;96576.50;4338941;32;20196;-50
2022/12/18 06:28:20;;;;;;;4.00;3.70;;;;;;;-2.45;87.16;96588.59;4325706;33;20328;-54
2022/12/18 06:30:49;;;;;;;1.93;1.83;;;;;;;-2.31;86.96;96592.97;4342403;32;20240;-54
2022/12/18 06:33:16;;;;;;;5.45;3.20;;;;;;;-2.18;86.88;96598.31;4326242;32;20182;-54
2022/12/18 06:35:41;;;;;;;3.37;3.28;;;;;;;-2.00;85.86;96594.53;4328126;32;20178;-51
2022/12/18 06:38:07;;;;;;;1.40;1.30;;;;;;;-2.04;86.15;96594.06;4329072;32;20298;-53
2022/12/18 06:40:32;;;;;;;4.13;2.70;;;;;;;-2.13;85.86;96603.78;4338866;32;20292;-54
2022/12/18 06:42:58;;;;;;;6.10;3.17;;;;;;;-2.07;85.67;96608.25;4320914;33;20174;-53
2022/12/18 06:45:24;;;;;;;3.60;3.40;;;;;;;-2.14;85.37;96609.16;4332406;32;20251;-52
2022/12/18 06:47:49;;;;;;;4.80;3.60;;;;;;;-2.31;86.22;96612.97;4348159;32;20204;-52
2022/12/18 06:50:16;;;;;;;2.33;2.27;;;;;;;-2.28;86.32;96607.38;4354567;32;20197;-49
2022/12/18 06:52:43;;;;;;;2.62;2.53;;;;;;;-2.28;85.86;96613.38;4347397;32;20205;-52
2022/12/18 06:55:10;;;;;;;3.65;3.45;;;;;;;-2.37;86.22;96619.66;4343009;32;20177;-50
2022/12/18 06:57:36;;;;;;;1.77;1.62;;;;;;;-2.29;86.26;96616.19;4332223;32;20227;-52
2022/12/18 07:00:02;;;;;;;2.58;2.47;;;;;;;-2.51;86.60;96623.91;4331018;32;20212;-54
2022/12/18 07:02:28;;;;;;;3.78;3.58;;;;;;;-2.63;86.83;96629.69;4341013;32;20178;-51
2022/12/18 07:04:53;;;;;;;3.53;3.33;;;;;;;-2.64;87.59;96633.28;4332049;32;20220;-52
2022/12/18 07:07:18;;;;;;;3.60;3.40;;;;;;;-2.48;86.62;96633.09;4349497;32;20186;-54
2022/12/18 07:09:44;;;;;;;2.83;2.73;;;;;;;-2.43;86.65;96638.56;4329249;32;20185;-52
2022/12/18 07:12:09;;;;;;;3.30;2.93;;;;;;;-2.57;86.98;96644.56;4322886;32;20253;-50
2022/12/18 07:14:34;;;;;;;2.77;2.60;;;;;;;-2.43;86.32;96641.16;4348932;32;20256;-50
2022/12/18 07:17:00;;;;;;;3.00;2.90;;;;;;;-2.62;86.65;96641.69;4354325;32;20193;-53
2022/12/18 07:19:27;;;;;;;3.00;2.63;;;;;;;-2.66;87.05;96645.63;4360697;32;20204;-52
2022/12/18 07:21:52;;;;;;;4.35;2.90;;;;;;;-2.80;87.62;96645.44;4353278;32;20190;-54
2022/12/18 07:24:17;;;;;;;3.23;2.40;;;;;;;-2.61;87.67;96648.50;4344101;32;20166;-53
2022/12/18 07:26:45;;;;;;;1.77;1.67;;;;;;;-2.65;86.97;96658.44;4333292;32;20197;-52
2022/12/18 07:29:11;;;;;;;3.97;2.85;;;;;;;-2.67;87.02;96663.00;4331582;32;20177;-51
2022/12/18 07:31:36;;;;;;;1.77;1.67;;;;;;;-2.78;87.11;96664.25;4345450;32;20268;-50
2022/12/18 07:34:01;;;;;;;1.70;1.60;;;;;;;-2.78;88.02;96666.03;4329752;32;20185;-50
2022/12/18 07:36:27;;;;;;;2.37;2.27;;;;;;;-2.70;87.10;96671.13;4334876;32;20260;-51
2022/12/18 07:38:52;;;;;;;7.20;4.23;;;;;;;-2.97;88.22;96669.94;4330017;33;20216;-52
2022/12/18 07:41:18;;;;;;;9.53;4.37;;;;;;;-2.81;88.33;96664.59;4344404;32;20186;-52
2022/12/18 07:43:44;;;;;;;4.33;3.00;;;;;;;-2.77;88.04;96658.06;4346064;32;20197;-52
2022/12/18 07:46:13;;;;;;;3.42;2.80;;;;;;;-2.62;87.56;96657.28;4346168;32;20173;-55
2022/12/18 07:48:39;;;;;;;4.15;2.28;;;;;;;-2.31;86.47;96646.72;4333968;32;20257;-53
2022/12/18 07:51:07;;;;;;;2.47;2.37;;;;;;;-2.32;86.48;96648.53;4336865;32;20188;-54
2022/12/18 07:53:35;;;;;;;3.72;3.42;;;;;;;-2.44;86.53;96661.13;4330414;32;20186;-53
2022/12/18 07:56:05;;;;;;;2.83;2.72;;;;;;;-2.47;86.37;96651.09;4346982;32;20189;-50
2022/12/18 07:58:31;;;;;;;3.35;3.08;;;;;;;-2.40;86.54;96661.59;4338182;32;20186;-52
2022/12/18 08:01:06;;;;;;;2.93;2.70;;;;;;;-2.13;85.74;96654.97;4346310;32;20181;-53
2022/12/18 08:03:31;;;;;;;3.30;3.20;;;;;;;-2.28;85.69;96660.16;4330677;32;20181;-52
2022/12/18 08:06:05;;;;;;;2.53;2.40;;;;;;;-2.18;85.12;96659.88;4340781;32;20209;-52
2022/12/18 08:08:30;;;;;;;2.25;2.12;;;;;;;-2.09;84.37;96664.00;4323239;32;20189;-51
2022/12/18 08:10:57;;;;;;;1.50;1.40;;;;;;;-2.26;85.00;96665.97;4330069;32;20201;-50
2022/12/18 08:13:22;;;;;;;2.78;2.67;;;;;;;-2.33;85.34;96674.69;4337561;32;20200;-53
2022/12/18 08:15:57;;;;;;;4.20;3.87;;;;;;;-2.27;84.87;96672.16;4329337;32;20193;-54
2022/12/18 08:18:23;;;;;;;3.17;2.97;;;;;;;-2.05;84.63;96680.84;4329513;32;20180;-53
2022/12/18 08:20:48;;;;;;;3.13;2.93;;;;;;;-2.30;85.19;96682.94;4344243;32;20192;-52
2022/12/18 08:23:14;;;;;;;3.07;2.87;;;;;;;-2.39;84.82;96677.97;4331735;32;20185;-52
2022/12/18 08:25:39;;;;;;;2.23;2.13;;;;;;;-2.66;86.15;96685.37;4343030;32;20228;-50
2022/12/18 08:28:04;;;;;;;7.00;3.03;;;;;;;-2.39;85.46;96684.00;4345265;32;20210;-54
2022/12/18 08:30:30;;;;;;;3.70;3.37;;;;;;;-2.34;85.09;96688.66;4349191;32;20223;-51
2022/12/18 08:32:55;;;;;;;3.23;3.07;;;;;;;-2.00;84.08;96688.09;4329034;32;20181;-52
2022/12/18 08:35:21;;;;;;;3.13;2.20;;;;;;;-2.12;83.59;96696.38;4341304;32;20261;-53
2022/12/18 08:37:46;;;;;;;2.00;2.00;;;;;;;-2.37;85.08;96687.22;4348288;32;20224;-51
2022/12/18 08:40:12;;;;;;;2.60;2.20;;;;;;;-2.55;85.77;96686.75;4343827;32;20205;-51
2022/12/18 08:45:41;;;;;;;4.53;2.42;;;;;;;-2.05;83.76;96682.62;4297335;33;20208;-48
2022/12/18 08:48:08;;;;;;;2.60;2.50;;;;;;;-2.44;85.11;96688.91;4310673;33;20225;-54
2022/12/18 08:50:33;;;;;;;2.58;2.47;;;;;;;-2.01;85.83;96683.88;4277247;33;20190;-53
2022/12/18 08:53:03;;;;;;;1.30;1.25;;;;;;;-0.34;100.00;96673.88;4292639;33;20197;-54
2022/12/18 08:55:30;;;;;;;3.62;3.42;;;;;;;1.01;100.00;96684.44;4295607;33;20206;-52
2022/12/18 08:57:58;;;;;;;3.80;3.60;;;;;;;1.71;95.54;96685.59;4310097;33;20240;-53
2022/12/18 09:00:24;;;;;;;4.22;3.92;;;;;;;2.41;92.09;96673.53;4290143;33;20204;-52
2022/12/18 09:02:53;;;;;;;4.53;4.20;;;;;;;2.57;87.55;96667.81;4279549;33;20178;-50
2022/12/18 09:05:19;;;;;;;3.50;2.67;;;;;;;2.55;82.88;96675.06;4302043;33;20291;-53
2022/12/18 09:07:47;;;;;;;4.47;4.20;;;;;;;1.55;68.84;96693.87;4314182;33;20326;-53
2022/12/18 09:10:14;;;;;;;4.13;3.83;;;;;;;0.41;70.87;96696.53;4301713;33;20275;-51
2022/12/18 09:12:41;;;;;;;3.77;3.57;;;;;;;0.04;72.09;96704.75;4294220;33;20272;-53
2022/12/18 09:15:07;;;;;;;4.00;3.90;;;;;;;-0.17;73.77;96697.81;4294342;33;20286;-55
2022/12/18 09:17:33;;;;;;;6.07;3.30;;;;;;;-0.57;75.46;96701.97;4299904;32;20209;-52
2022/12/18 09:19:59;;;;;;;3.30;3.20;;;;;;;-1.16;77.61;96707.47;4325225;32;20190;-49
2022/12/18 09:22:26;;;;;;;3.87;3.60;;;;;;;-1.55;79.68;96713.88;4322546;32;20241;-55
2022/12/18 09:24:54;;;;;;;3.12;2.90;;;;;;;-1.49;79.78;96713.16;4308776;32;20280;-54
2022/12/18 09:27:20;;;;;;;2.97;2.85;;;;;;;-1.31;79.55;96704.94;4288501;32;20194;-53
2022/12/18 09:29:47;;;;;;;3.42;3.12;;;;;;;-1.37;79.53;96703.06;4319724;32;20202;-53
2022/12/18 09:32:16;;;;;;;2.67;2.58;;;;;;;-1.45;80.21;96700.56;4303628;32;20245;-53
2022/12/18 09:34:42;;;;;;;2.55;2.45;;;;;;;-1.98;80.83;96694.72;4319831;32;20173;-53
2022/12/18 09:37:11;;;;;;;2.47;1.95;;;;;;;-2.10;82.72;96693.59;4262426;32;20234;-52
2022/12/18 09:39:41;;;;;;;1.25;1.17;;;;;;;-1.94;85.47;96700.37;4326773;32;20193;-52
2022/12/18 09:42:19;;;;;;;2.58;2.37;;;;;;;-1.46;86.37;96697.16;4314263;32;20183;-54
2022/12/18 09:44:53;;;;;;;1.87;1.77;;;;;;;-1.56;81.44;96701.03;4320533;32;20280;-54
2022/12/18 09:47:34;;;;;;;1.40;1.40;;;;;;;-1.73;81.56;96703.06;4319476;32;20197;-53
2022/12/18 09:50:17;;;;;;;1.55;1.52;;;;;;;-2.00;82.07;96694.09;4320330;32;20209;-52
2022/12/18 09:52:53;;;;;;;2.42;2.22;;;;;;;-2.03;82.07;96701.44;4312070;32;20202;-54
2022/12/18 09:55:41;;;;;;;1.62;1.62;;;;;;;-2.18;82.95;96699.69;4325224;32;20219;-52
2022/12/18 09:58:44;;;;;;;1.75;1.65;;;;;;;-1.97;82.90;96692.94;4290289;32;20190;-54
2022/12/18 10:01:14;;;;;;;5.00;2.85;;;;;;;-1.85;81.98;96691.47;4258788;33;20214;-55
2022/12/18 10:03:41;;;;;;;2.03;1.92;;;;;;;-2.01;82.04;96689.09;4291419;32;20253;-52
2022/12/18 10:06:42;;;;;;;2.92;2.72;;;;;;;-1.93;81.99;96689.00;4319779;32;20243;-53
2022/12/18 10:09:14;;;;;;;1.58;1.58;;;;;;;-2.25;83.06;96693.56;4323520;32;20216;-53
2022/12/18 10:11:55;;;;;;;2.67;2.45;;;;;;;-1.87;82.46;96677.87;4318432;32;20197;-54
2022/12/18 10:14:34;;;;;;;2.45;2.33;;;;;;;-1.73;81.84;96682.25;4313109;32;20274;-54
2022/12/18 10:17:48;;;;;;;3.35;3.15;;;;;;;-1.74;82.18;96672.84;4299851;32;20197;-54
2022/12/18 10:20:38;;;;;;;0.68;0.68;;;;;;;-1.81;81.82;96669.34;4257592;33;20203;-54
2022/12/18 10:23:48;;;;;;;0.75;0.75;;;;;;;-1.55;81.41;96664.44;4261431;33;20243;-53
2022/12/18 10:26:15;;;;;;;2.30;2.03;;;;;;;-1.55;81.25;96667.03;4221585;33;20263;-53
2022/12/18 10:28:43;;;;;;;1.62;1.62;;;;;;;-1.08;78.80;96663.91;4230488;33;20203;-52
2022/12/18 10:31:21;;;;;;;3.28;3.08;;;;;;;-1.07;78.42;96664.72;4240505;33;20274;-53
2022/12/18 10:33:48;;;;;;;1.77;1.67;;;;;;;-1.05;77.85;96654.91;4240248;33;20206;-52
2022/12/18 10:36:15;;;;;;;2.00;1.90;;;;;;;-1.26;78.45;96654.94;4240762;33;20222;-52
2022/12/18 10:38:43;;;;;;;2.15;1.98;;;;;;;-1.22;78.97;96654.34;4245982;33;20199;-50
2022/12/18 10:41:25;;;;;;;2.95;2.00;;;;;;;-1.74;80.52;96649.44;4247024;33;20207;-50
2022/12/18 10:44:25;;;;;;;3.08;2.05;;;;;;;-1.65;79.33;96645.72;4263229;33;20221;-52
2022/12/18 10:47:03;;;;;;;3.70;3.50;;;;;;;-1.56;80.04;96647.22;4240415;33;20287;-54
2022/12/18 10:49:52;;;;;;;2.87;2.67;;;;;;;-1.62;80.86;96645.34;4264181;33;20231;-53
2022/12/18 10:52:23;;;;;;;5.10;2.85;;;;;;;-1.26;79.44;96653.13;4247423;33;20297;-52
2022/12/18 10:54:58;;;;;;;1.73;1.62;;;;;;;-1.34;78.97;96648.03;4286460;32;20256;-52
2022/12/18 10:57:41;;;;;;;4.78;2.90;;;;;;;-1.27;79.47;96645.50;4322699;32;20240;-51
2022/12/18 11:00:30;;;;;;;2.62;2.05;;;;;;;-1.09;78.45;96635.47;4330277;32;20184;-51
2022/12/18 11:03:01;;;;;;;1.40;1.40;;;;;;;-1.22;78.80;96649.13;4307929;32;20198;-54
2022/12/18 11:05:33;;;;;;;4.07;2.45;;;;;;;-1.27;78.93;96648.91;4334200;32;20196;-48
2022/12/18 11:08:01;;;;;;;1.40;1.30;;;;;;;-1.02;78.60;96651.12;4305175;33;20213;-52
2022/12/18 11:10:40;;;;;;;2.03;1.92;;;;;;;-0.82;77.33;96649.47;4333606;32;20212;-51
2022/12/18 11:13:27;;;;;;;2.30;2.20;;;;;;;-0.70;77.01;96656.59;4306648;32;20182;-51
2022/12/18 11:15:54;;;;;;;2.87;2.67;;;;;;;-0.37;76.26;96656.00;4277122;32;20311;-52
2022/12/18 11:18:37;;;;;;;3.70;3.50;;;;;;;-0.07;74.55;96652.16;4263706;32;20209;-52
2022/12/18 11:21:07;;;;;;;2.10;2.00;;;;;;;-0.25;74.39;96654.50;4310560;33;20193;-57
2022/12/18 11:23:37;;;;;;;2.22;2.12;;;;;;;-0.19;74.79;96658.91;4316826;32;20217;-57
2022/12/18 11:26:10;;;;;;;4.35;3.92;;;;;;;-0.52;75.53;96657.91;4306736;32;20194;-54
2022/12/18 11:29:09;;;;;;;7.10;3.70;;;;;;;-0.34;75.47;96663.44;4304877;32;20189;-53
2022/12/18 11:31:39;;;;;;;4.18;3.87;;;;;;;-0.11;74.50;96656.16;4315505;32;20181;-54
2022/12/18 11:34:27;;;;;;;4.22;3.92;;;;;;;-0.16;74.45;96653.31;4337620;32;20205;-62
2022/12/18 11:36:54;;;;;;;4.03;3.72;;;;;;;-0.08;73.23;96660.19;4291085;32;20271;-55
2022/12/18 11:39:46;;;;;;;3.05;2.95;;;;;;;-0.28;74.37;96649.66;4321898;33;20272;-54
2022/12/18 11:42:33;;;;;;;3.47;3.28;;;;;;;0.02;73.61;96649.38;4303629;32;20211;-55
2022/12/18 11:45:24;;;;;;;2.58;2.47;;;;;;;-0.14;73.92;96634.88;4310086;32;20225;-52
2022/12/18 11:48:05;;;;;;;5.68;3.75;;;;;;;-0.27;75.24;96635.62;4279811;33;20212;-54
2022/12/18 11:50:57;;;;;;;3.87;3.58;;;;;;;-0.36;75.16;96636.75;4310208;32;20259;-55
2022/12/18 11:53:25;;;;;;;3.12;2.90;;;;;;;-0.18;74.20;96634.44;4314901;32;20204;-57